sensor_id;sensor_type;location;lat;lon;timestamp;pressure;altitude;pressure_sealevel;temperature;humidity
40994;BME280;26722;43.212;27.932;2023-05-09T00:02:02;55107.66;;;-146.72;76.55
40994;BME280;26722;43.212;27.932;2023-05-09T00:04:28;55116.09;;;-146.72;76.45
40994;BME280;26722;43.212;27.932;2023-05-09T00:06:54;55101.31;;;-146.72;76.31
40994;BME280;26722;43.212;27.932;2023-05-09T00:09:19;55107.66;;;-146.72;76.28
40994;BME280;26722;43.212;27.932;2023-05-09T00:11:44;55111.88;;;-146.72;75.38
40994;BME280;26722;43.212;27.932;2023-05-09T00:14:10;55101.31;;;-146.72;74.93
40994;BME280;26722;43.212;27.932;2023-05-09T00:16:38;55094.97;;;-146.72;75.23
40994;BME280;26722;43.212;27.932;2023-05-09T00:19:04;55120.31;;;-146.72;74.31
40994;BME280;26722;43.212;27.932;2023-05-09T00:21:29;55111.88;;;-146.72;73.98
40994;BME280;26722;43.212;27.932;2023-05-09T00:23:55;55120.31;;;-146.72;73.08
40994;BME280;26722;43.212;27.932;2023-05-09T00:26:21;55120.31;;;-146.72;73.40
40994;BME280;26722;43.212;27.932;2023-05-09T00:28:46;55103.44;;;-146.72;72.87
40994;BME280;26722;43.212;27.932;2023-05-09T00:31:11;55116.09;;;-146.72;73.40
40994;BME280;26722;43.212;27.932;2023-05-09T00:33:37;55111.88;;;-146.72;73.60
40994;BME280;26722;43.212;27.932;2023-05-09T00:36:02;55137.22;;;-146.72;74.32
40994;BME280;26722;43.212;27.932;2023-05-09T00:38:28;55107.66;;;-146.72;74.53
40994;BME280;26722;43.212;27.932;2023-05-09T00:40:53;55103.44;;;-146.72;74.62
40994;BME280;26722;43.212;27.932;2023-05-09T00:43:19;55126.66;;;-146.72;75.02
40994;BME280;26722;43.212;27.932;2023-05-09T00:45:45;55111.88;;;-146.72;75.30
40994;BME280;26722;43.212;27.932;2023-05-09T00:48:10;55105.53;;;-146.72;75.60
40994;BME280;26722;43.212;27.932;2023-05-09T00:50:36;55120.31;;;-146.72;75.87
40994;BME280;26722;43.212;27.932;2023-05-09T00:53:02;55116.09;;;-146.72;76.58
40994;BME280;26722;43.212;27.932;2023-05-09T00:55:28;55124.53;;;-146.72;76.94
40994;BME280;26722;43.212;27.932;2023-05-09T00:57:53;55122.44;;;-146.72;77.12
40994;BME280;26722;43.212;27.932;2023-05-09T01:00:18;55151.97;;;-146.72;77.52
40994;BME280;26722;43.212;27.932;2023-05-09T01:02:45;55151.97;;;-146.72;77.46
40994;BME280;26722;43.212;27.932;2023-05-09T01:05:12;55113.97;;;-146.72;77.14
40994;BME280;26722;43.212;27.932;2023-05-09T01:15:28;55128.75;;;-146.72;74.76
40994;BME280;26722;43.212;27.932;2023-05-09T01:25:35;55130.88;;;-146.72;73.33
40994;BME280;26722;43.212;27.932;2023-05-09T01:30:27;55141.44;;;-146.72;73.22
40994;BME280;26722;43.212;27.932;2023-05-09T01:32:55;55132.97;;;-146.72;73.48
40994;BME280;26722;43.212;27.932;2023-05-09T01:35:23;55124.53;;;-146.72;72.41
40994;BME280;26722;43.212;27.932;2023-05-09T01:37:50;55132.97;;;-146.72;72.00
40994;BME280;26722;43.212;27.932;2023-05-09T01:40:16;55113.97;;;-146.72;71.98
40994;BME280;26722;43.212;27.932;2023-05-09T01:43:03;55124.53;;;-146.72;71.37
40994;BME280;26722;43.212;27.932;2023-05-09T01:45:30;55137.22;;;-146.72;72.13
40994;BME280;26722;43.212;27.932;2023-05-09T01:47:56;55122.44;;;-146.72;71.94
40994;BME280;26722;43.212;27.932;2023-05-09T01:50:22;55116.09;;;-146.72;71.85
40994;BME280;26722;43.212;27.932;2023-05-09T01:52:50;55128.75;;;-146.72;72.57
40994;BME280;26722;43.212;27.932;2023-05-09T01:55:17;55149.88;;;-146.72;72.83
40994;BME280;26722;43.212;27.932;2023-05-09T01:57:44;55132.97;;;-146.72;73.01
40994;BME280;26722;43.212;27.932;2023-05-09T02:00:09;55141.44;;;-146.72;73.34
40994;BME280;26722;43.212;27.932;2023-05-09T02:02:37;55149.88;;;-146.72;73.72
40994;BME280;26722;43.212;27.932;2023-05-09T02:05:03;55124.53;;;-146.72;74.31
40994;BME280;26722;43.212;27.932;2023-05-09T02:07:28;55120.31;;;-146.72;74.29
40994;BME280;26722;43.212;27.932;2023-05-09T02:09:54;55120.31;;;-146.72;74.68
40994;BME280;26722;43.212;27.932;2023-05-09T02:12:24;55132.97;;;-146.72;74.81
40994;BME280;26722;43.212;27.932;2023-05-09T02:14:50;55156.22;;;-146.72;75.02
40994;BME280;26722;43.212;27.932;2023-05-09T02:17:15;55158.31;;;-146.72;75.57
40994;BME280;26722;43.212;27.932;2023-05-09T02:19:41;55141.44;;;-146.72;75.57
40994;BME280;26722;43.212;27.932;2023-05-09T02:22:06;55156.22;;;-146.72;75.76
40994;BME280;26722;43.212;27.932;2023-05-09T02:24:32;55145.66;;;-146.72;75.75
40994;BME280;26722;43.212;27.932;2023-05-09T02:27:01;55149.88;;;-146.72;76.30
40994;BME280;26722;43.212;27.932;2023-05-09T02:29:29;55137.22;;;-146.72;76.58
40994;BME280;26722;43.212;27.932;2023-05-09T02:31:56;55145.66;;;-146.72;76.96
40994;BME280;26722;43.212;27.932;2023-05-09T02:34:23;55145.66;;;-146.72;76.90
40994;BME280;26722;43.212;27.932;2023-05-09T02:36:49;55124.53;;;-146.72;77.37
40994;BME280;26722;43.212;27.932;2023-05-09T02:39:15;55128.75;;;-146.72;77.05
40994;BME280;26722;43.212;27.932;2023-05-09T02:41:46;55135.09;;;-146.72;77.41
40994;BME280;26722;43.212;27.932;2023-05-09T02:44:11;55141.44;;;-146.72;77.54
40994;BME280;26722;43.212;27.932;2023-05-09T02:46:37;55156.22;;;-146.72;77.76
40994;BME280;26722;43.212;27.932;2023-05-09T02:49:02;55128.75;;;-146.72;78.05
40994;BME280;26722;43.212;27.932;2023-05-09T02:51:27;55149.88;;;-146.72;78.25
40994;BME280;26722;43.212;27.932;2023-05-09T02:53:52;55164.66;;;-146.72;78.54
40994;BME280;26722;43.212;27.932;2023-05-09T02:56:18;55151.97;;;-146.72;78.91
40994;BME280;26722;43.212;27.932;2023-05-09T02:58:43;55145.66;;;-146.72;79.01
40994;BME280;26722;43.212;27.932;2023-05-09T03:01:14;55151.97;;;-146.72;78.94
40994;BME280;26722;43.212;27.932;2023-05-09T03:03:40;55135.09;;;-146.72;78.83
40994;BME280;26722;43.212;27.932;2023-05-09T03:06:05;55145.66;;;-146.72;78.62
40994;BME280;26722;43.212;27.932;2023-05-09T03:08:31;55149.88;;;-146.72;78.33
40994;BME280;26722;43.212;27.932;2023-05-09T03:10:56;55149.88;;;-146.72;77.94
40994;BME280;26722;43.212;27.932;2023-05-09T03:13:21;55128.75;;;-146.72;78.06
40994;BME280;26722;43.212;27.932;2023-05-09T03:15:46;55145.66;;;-146.72;77.99
40994;BME280;26722;43.212;27.932;2023-05-09T03:18:12;55149.88;;;-146.72;77.75
40994;BME280;26722;43.212;27.932;2023-05-09T03:20:37;55141.44;;;-146.72;77.76
40994;BME280;26722;43.212;27.932;2023-05-09T03:23:02;55132.97;;;-146.72;77.79
40994;BME280;26722;43.212;27.932;2023-05-09T03:25:27;55141.44;;;-146.72;76.99
40994;BME280;26722;43.212;27.932;2023-05-09T03:27:53;55120.31;;;-146.72;77.12
40994;BME280;26722;43.212;27.932;2023-05-09T03:30:19;55154.09;;;-146.72;76.89
40994;BME280;26722;43.212;27.932;2023-05-09T03:32:44;55126.66;;;-146.72;76.73
40994;BME280;26722;43.212;27.932;2023-05-09T03:35:09;55158.31;;;-146.72;76.75
40994;BME280;26722;43.212;27.932;2023-05-09T03:37:35;55132.97;;;-146.72;76.96
40994;BME280;26722;43.212;27.932;2023-05-09T03:40:00;55128.75;;;-146.72;76.88
40994;BME280;26722;43.212;27.932;2023-05-09T03:42:25;55122.44;;;-146.72;77.15
40994;BME280;26722;43.212;27.932;2023-05-09T03:44:51;55132.97;;;-146.72;76.97
40994;BME280;26722;43.212;27.932;2023-05-09T03:47:17;55132.97;;;-146.72;77.08
40994;BME280;26722;43.212;27.932;2023-05-09T03:49:42;55128.75;;;-146.72;76.74
40994;BME280;26722;43.212;27.932;2023-05-09T03:52:07;55145.66;;;-146.72;76.49
40994;BME280;26722;43.212;27.932;2023-05-09T03:54:33;55132.97;;;-146.72;76.75
40994;BME280;26722;43.212;27.932;2023-05-09T03:56:58;55128.75;;;-146.72;76.82
40994;BME280;26722;43.212;27.932;2023-05-09T03:59:24;55120.31;;;-146.72;76.71
40994;BME280;26722;43.212;27.932;2023-05-09T04:01:49;55116.09;;;-146.72;75.71
40994;BME280;26722;43.212;27.932;2023-05-09T04:04:14;55116.09;;;-146.72;75.32
40994;BME280;26722;43.212;27.932;2023-05-09T04:06:40;55139.31;;;-146.72;75.64
40994;BME280;26722;43.212;27.932;2023-05-09T04:09:05;55118.19;;;-146.72;76.22
40994;BME280;26722;43.212;27.932;2023-05-09T04:11:31;55137.22;;;-146.72;77.06
40994;BME280;26722;43.212;27.932;2023-05-09T04:13:56;55118.19;;;-146.72;77.36
40994;BME280;26722;43.212;27.932;2023-05-09T04:16:21;55124.53;;;-146.72;77.00
40994;BME280;26722;43.212;27.932;2023-05-09T04:18:47;55126.66;;;-146.72;77.21
40994;BME280;26722;43.212;27.932;2023-05-09T04:21:12;55128.75;;;-146.72;76.83
40994;BME280;26722;43.212;27.932;2023-05-09T04:23:37;55128.75;;;-146.72;77.07
40994;BME280;26722;43.212;27.932;2023-05-09T04:26:03;55137.22;;;-146.72;77.09
40994;BME280;26722;43.212;27.932;2023-05-09T04:28:28;55132.97;;;-146.72;77.03
40994;BME280;26722;43.212;27.932;2023-05-09T04:30:53;55141.44;;;-146.72;77.72
40994;BME280;26722;43.212;27.932;2023-05-09T04:33:19;55154.09;;;-146.72;77.78
40994;BME280;26722;43.212;27.932;2023-05-09T04:35:45;55135.09;;;-146.72;77.20
40994;BME280;26722;43.212;27.932;2023-05-09T04:38:10;55107.66;;;-146.72;77.18
40994;BME280;26722;43.212;27.932;2023-05-09T04:40:36;55141.44;;;-146.72;76.52
40994;BME280;26722;43.212;27.932;2023-05-09T04:43:01;55141.44;;;-146.72;76.30
40994;BME280;26722;43.212;27.932;2023-05-09T04:45:28;55124.53;;;-146.72;76.66
40994;BME280;26722;43.212;27.932;2023-05-09T04:47:53;55128.75;;;-146.72;76.08
40994;BME280;26722;43.212;27.932;2023-05-09T04:50:18;55109.75;;;-146.72;75.33
40994;BME280;26722;43.212;27.932;2023-05-09T04:52:44;55109.75;;;-146.72;75.74
40994;BME280;26722;43.212;27.932;2023-05-09T04:55:09;55111.88;;;-146.72;75.53
40994;BME280;26722;43.212;27.932;2023-05-09T04:57:34;55103.44;;;-146.72;75.31
40994;BME280;26722;43.212;27.932;2023-05-09T04:59:59;55109.75;;;-146.72;73.71
40994;BME280;26722;43.212;27.932;2023-05-09T05:02:25;55116.09;;;-146.72;73.31
40994;BME280;26722;43.212;27.932;2023-05-09T05:04:50;55103.44;;;-146.72;73.40
40994;BME280;26722;43.212;27.932;2023-05-09T05:07:16;55120.31;;;-146.72;73.39
40994;BME280;26722;43.212;27.932;2023-05-09T05:09:41;55111.88;;;-146.72;72.93
40994;BME280;26722;43.212;27.932;2023-05-09T05:12:06;55105.53;;;-146.72;73.00
40994;BME280;26722;43.212;27.932;2023-05-09T05:14:32;55103.44;;;-146.72;72.68
40994;BME280;26722;43.212;27.932;2023-05-09T05:16:58;55094.97;;;-146.72;72.09
40994;BME280;26722;43.212;27.932;2023-05-09T05:19:23;55107.66;;;-146.72;71.80
40994;BME280;26722;43.212;27.932;2023-05-09T05:21:48;55116.09;;;-146.72;72.13
40994;BME280;26722;43.212;27.932;2023-05-09T05:24:14;55090.75;;;-146.72;71.71
40994;BME280;26722;43.212;27.932;2023-05-09T05:26:39;55097.09;;;-146.72;71.46
40994;BME280;26722;43.212;27.932;2023-05-09T05:29:04;55094.97;;;-146.72;70.32
40994;BME280;26722;43.212;27.932;2023-05-09T05:31:30;55103.44;;;-146.72;70.28
40994;BME280;26722;43.212;27.932;2023-05-09T05:33:55;55094.97;;;-146.72;69.82
40994;BME280;26722;43.212;27.932;2023-05-09T05:36:20;55082.31;;;-146.72;69.60
40994;BME280;26722;43.212;27.932;2023-05-09T05:38:46;55082.31;;;-146.72;69.24
40994;BME280;26722;43.212;27.932;2023-05-09T05:41:11;55092.88;;;-146.72;68.88
40994;BME280;26722;43.212;27.932;2023-05-09T05:43:36;55105.53;;;-146.72;69.27
40994;BME280;26722;43.212;27.932;2023-05-09T05:46:02;55078.09;;;-146.72;68.58
40994;BME280;26722;43.212;27.932;2023-05-09T05:48:27;55067.53;;;-146.72;68.04
40994;BME280;26722;43.212;27.932;2023-05-09T05:50:52;55073.88;;;-146.72;68.04
40994;BME280;26722;43.212;27.932;2023-05-09T05:53:17;55061.19;;;-146.72;67.39
40994;BME280;26722;43.212;27.932;2023-05-09T05:55:43;55078.09;;;-146.72;66.06
40994;BME280;26722;43.212;27.932;2023-05-09T05:58:10;55090.75;;;-146.72;66.99
40994;BME280;26722;43.212;27.932;2023-05-09T06:00:35;55090.75;;;-146.72;67.47
40994;BME280;26722;43.212;27.932;2023-05-09T06:03:00;55075.97;;;-146.72;66.89
40994;BME280;26722;43.212;27.932;2023-05-09T06:05:25;55082.31;;;-146.72;67.09
40994;BME280;26722;43.212;27.932;2023-05-09T06:07:51;55069.66;;;-146.72;66.43
40994;BME280;26722;43.212;27.932;2023-05-09T06:10:16;55071.75;;;-146.72;65.47
40994;BME280;26722;43.212;27.932;2023-05-09T06:12:41;55067.53;;;-146.72;66.16
40994;BME280;26722;43.212;27.932;2023-05-09T06:15:07;55067.53;;;-146.72;66.53
40994;BME280;26722;43.212;27.932;2023-05-09T06:17:32;55086.53;;;-146.72;66.65
40994;BME280;26722;43.212;27.932;2023-05-09T06:19:57;55092.88;;;-146.72;66.23
40994;BME280;26722;43.212;27.932;2023-05-09T06:22:23;55086.53;;;-146.72;65.55
40994;BME280;26722;43.212;27.932;2023-05-09T06:24:48;55048.53;;;-146.72;65.86
40994;BME280;26722;43.212;27.932;2023-05-09T06:27:13;55082.31;;;-146.72;64.95
40994;BME280;26722;43.212;27.932;2023-05-09T06:29:39;55080.19;;;-146.72;65.45
40994;BME280;26722;43.212;27.932;2023-05-09T06:32:04;55078.09;;;-146.72;65.66
40994;BME280;26722;43.212;27.932;2023-05-09T06:34:30;55073.88;;;-146.72;66.69
40994;BME280;26722;43.212;27.932;2023-05-09T06:36:56;55069.66;;;-146.72;65.67
40994;BME280;26722;43.212;27.932;2023-05-09T06:39:21;55078.09;;;-146.72;65.75
40994;BME280;26722;43.212;27.932;2023-05-09T06:41:46;55065.41;;;-146.72;66.52
40994;BME280;26722;43.212;27.932;2023-05-09T06:44:12;55059.09;;;-146.72;66.20
40994;BME280;26722;43.212;27.932;2023-05-09T06:46:37;55084.44;;;-146.72;66.70
40994;BME280;26722;43.212;27.932;2023-05-09T06:49:02;55075.97;;;-146.72;66.80
40994;BME280;26722;43.212;27.932;2023-05-09T06:51:27;55092.88;;;-146.72;66.05
40994;BME280;26722;43.212;27.932;2023-05-09T06:53:53;55090.75;;;-146.72;66.38
40994;BME280;26722;43.212;27.932;2023-05-09T06:56:21;55088.66;;;-146.72;65.28
40994;BME280;26722;43.212;27.932;2023-05-09T06:58:49;55073.88;;;-146.72;65.14
40994;BME280;26722;43.212;27.932;2023-05-09T07:01:14;55073.88;;;-146.72;64.11
40994;BME280;26722;43.212;27.932;2023-05-09T07:03:43;55067.53;;;-146.72;64.06
40994;BME280;26722;43.212;27.932;2023-05-09T07:06:11;55065.41;;;-146.72;62.68
40994;BME280;26722;43.212;27.932;2023-05-09T07:08:36;55050.66;;;-146.72;62.55
40994;BME280;26722;43.212;27.932;2023-05-09T07:11:01;55061.19;;;-146.72;61.75
40994;BME280;26722;43.212;27.932;2023-05-09T07:13:27;55054.88;;;-146.72;60.91
40994;BME280;26722;43.212;27.932;2023-05-09T07:15:52;55050.66;;;-146.72;60.65
40994;BME280;26722;43.212;27.932;2023-05-09T07:18:17;55048.53;;;-146.72;61.05
40994;BME280;26722;43.212;27.932;2023-05-09T07:20:43;55056.97;;;-146.72;60.52
40994;BME280;26722;43.212;27.932;2023-05-09T07:23:08;55059.09;;;-146.72;61.22
40994;BME280;26722;43.212;27.932;2023-05-09T07:25:33;55082.31;;;-146.72;62.55
40994;BME280;26722;43.212;27.932;2023-05-09T07:27:59;55069.66;;;-146.72;62.87
40994;BME280;26722;43.212;27.932;2023-05-09T07:30:24;55094.97;;;-146.72;64.08
40994;BME280;26722;43.212;27.932;2023-05-09T07:32:49;55078.09;;;-146.72;64.51
40994;BME280;26722;43.212;27.932;2023-05-09T07:35:16;55082.31;;;-146.72;65.06
40994;BME280;26722;43.212;27.932;2023-05-09T07:37:41;55111.88;;;-146.72;65.93
40994;BME280;26722;43.212;27.932;2023-05-09T07:40:07;55090.75;;;-146.72;66.93
40994;BME280;26722;43.212;27.932;2023-05-09T07:42:32;55113.97;;;-146.72;66.92
40994;BME280;26722;43.212;27.932;2023-05-09T07:44:58;55101.31;;;-146.72;67.47
40994;BME280;26722;43.212;27.932;2023-05-09T07:47:24;55082.31;;;-146.72;67.49
40994;BME280;26722;43.212;27.932;2023-05-09T07:49:49;55094.97;;;-146.72;67.25
40994;BME280;26722;43.212;27.932;2023-05-09T07:52:15;55090.75;;;-146.72;66.66
40994;BME280;26722;43.212;27.932;2023-05-09T07:54:41;55097.09;;;-146.72;65.93
40994;BME280;26722;43.212;27.932;2023-05-09T07:57:07;55073.88;;;-146.72;65.35
40994;BME280;26722;43.212;27.932;2023-05-09T07:59:32;55090.75;;;-146.72;65.69
40994;BME280;26722;43.212;27.932;2023-05-09T08:01:57;55086.53;;;-146.72;65.62
40994;BME280;26722;43.212;27.932;2023-05-09T08:04:23;55075.97;;;-146.72;65.60
40994;BME280;26722;43.212;27.932;2023-05-09T08:06:48;55103.44;;;-146.72;65.38
40994;BME280;26722;43.212;27.932;2023-05-09T08:09:13;55065.41;;;-146.72;63.71
40994;BME280;26722;43.212;27.932;2023-05-09T08:11:38;55061.19;;;-146.72;62.65
40994;BME280;26722;43.212;27.932;2023-05-09T08:14:04;55065.41;;;-146.72;61.21
40994;BME280;26722;43.212;27.932;2023-05-09T08:16:30;55069.66;;;-146.72;60.31
40994;BME280;26722;43.212;27.932;2023-05-09T08:18:55;55048.53;;;-146.72;59.12
40994;BME280;26722;43.212;27.932;2023-05-09T08:21:21;55071.75;;;-146.72;58.43
40994;BME280;26722;43.212;27.932;2023-05-09T08:23:46;55056.97;;;-146.72;59.09
40994;BME280;26722;43.212;27.932;2023-05-09T08:26:11;55069.66;;;-146.72;59.95
40994;BME280;26722;43.212;27.932;2023-05-09T08:28:37;55075.97;;;-146.72;59.51
40994;BME280;26722;43.212;27.932;2023-05-09T08:31:02;55052.75;;;-146.72;59.57
40994;BME280;26722;43.212;27.932;2023-05-09T08:33:27;55059.09;;;-146.72;60.06
40994;BME280;26722;43.212;27.932;2023-05-09T08:35:53;55073.88;;;-146.72;59.93
40994;BME280;26722;43.212;27.932;2023-05-09T08:38:18;55052.75;;;-146.72;59.42
40994;BME280;26722;43.212;27.932;2023-05-09T08:40:43;55056.97;;;-146.72;59.43
40994;BME280;26722;43.212;27.932;2023-05-09T08:43:09;55065.41;;;-146.72;59.47
40994;BME280;26722;43.212;27.932;2023-05-09T08:45:38;55050.66;;;-146.72;58.64
40994;BME280;26722;43.212;27.932;2023-05-09T08:48:06;55061.19;;;-146.72;56.59
40994;BME280;26722;43.212;27.932;2023-05-09T08:50:32;55042.19;;;-146.72;55.70
40994;BME280;26722;43.212;27.932;2023-05-09T08:52:59;55033.75;;;-146.72;55.09
40994;BME280;26722;43.212;27.932;2023-05-09T08:55:25;55029.53;;;-146.72;55.68
40994;BME280;26722;43.212;27.932;2023-05-09T08:57:51;55052.75;;;-146.72;55.46
40994;BME280;26722;43.212;27.932;2023-05-09T09:00:16;55044.31;;;-146.72;55.80
40994;BME280;26722;43.212;27.932;2023-05-09T09:02:44;55023.19;;;-146.72;56.61
40994;BME280;26722;43.212;27.932;2023-05-09T09:05:09;55033.75;;;-146.72;55.61
40994;BME280;26722;43.212;27.932;2023-05-09T09:07:35;55029.53;;;-146.72;54.58
40994;BME280;26722;43.212;27.932;2023-05-09T09:10:02;55016.88;;;-146.72;54.18
40994;BME280;26722;43.212;27.932;2023-05-09T09:12:27;55023.19;;;-146.72;53.56
40994;BME280;26722;43.212;27.932;2023-05-09T09:14:53;55023.19;;;-146.72;53.75
40994;BME280;26722;43.212;27.932;2023-05-09T09:17:25;55027.41;;;-146.72;53.55
40994;BME280;26722;43.212;27.932;2023-05-09T09:19:57;55027.41;;;-146.72;57.22
40994;BME280;26722;43.212;27.932;2023-05-09T09:22:24;55044.31;;;-146.72;59.40
40994;BME280;26722;43.212;27.932;2023-05-09T09:24:57;55040.09;;;-146.72;60.81
40994;BME280;26722;43.212;27.932;2023-05-09T09:27:22;55065.41;;;-146.72;61.38
40994;BME280;26722;43.212;27.932;2023-05-09T09:29:48;55033.75;;;-146.72;61.05
40994;BME280;26722;43.212;27.932;2023-05-09T09:32:13;55056.97;;;-146.72;60.84
40994;BME280;26722;43.212;27.932;2023-05-09T09:34:39;55059.09;;;-146.72;60.93
40994;BME280;26722;43.212;27.932;2023-05-09T09:37:05;55056.97;;;-146.72;61.57
40994;BME280;26722;43.212;27.932;2023-05-09T09:39:30;55063.31;;;-146.72;62.39
40994;BME280;26722;43.212;27.932;2023-05-09T09:41:55;55073.88;;;-146.72;61.96
40994;BME280;26722;43.212;27.932;2023-05-09T09:44:21;55044.31;;;-146.72;61.08
40994;BME280;26722;43.212;27.932;2023-05-09T09:46:47;55052.75;;;-146.72;59.79
40994;BME280;26722;43.212;27.932;2023-05-09T09:49:15;55048.53;;;-146.72;61.55
40994;BME280;26722;43.212;27.932;2023-05-09T09:51:40;55054.88;;;-146.72;61.98
40994;BME280;26722;43.212;27.932;2023-05-09T09:54:07;55065.41;;;-146.72;63.24
40994;BME280;26722;43.212;27.932;2023-05-09T09:56:39;55069.66;;;-146.72;63.65
40994;BME280;26722;43.212;27.932;2023-05-09T09:59:08;55052.75;;;-146.72;63.34
40994;BME280;26722;43.212;27.932;2023-05-09T10:01:35;55063.31;;;-146.72;64.34
40994;BME280;26722;43.212;27.932;2023-05-09T10:04:01;55061.19;;;-146.72;64.28
40994;BME280;26722;43.212;27.932;2023-05-09T10:06:27;55086.53;;;-146.72;62.30
40994;BME280;26722;43.212;27.932;2023-05-09T10:08:52;55090.75;;;-146.72;61.83
40994;BME280;26722;43.212;27.932;2023-05-09T10:11:17;55073.88;;;-146.72;61.34
40994;BME280;26722;43.212;27.932;2023-05-09T10:13:43;55061.19;;;-146.72;61.27
40994;BME280;26722;43.212;27.932;2023-05-09T10:16:09;55052.75;;;-146.72;58.40
40994;BME280;26722;43.212;27.932;2023-05-09T10:18:35;55050.66;;;-146.72;57.40
40994;BME280;26722;43.212;27.932;2023-05-09T10:21:01;55080.19;;;-146.72;56.70
40994;BME280;26722;43.212;27.932;2023-05-09T10:23:29;55061.19;;;-146.72;57.04
40994;BME280;26722;43.212;27.932;2023-05-09T10:26:02;55044.31;;;-146.72;56.94
40994;BME280;26722;43.212;27.932;2023-05-09T10:28:30;55056.97;;;-146.72;56.98
40994;BME280;26722;43.212;27.932;2023-05-09T10:31:09;55056.97;;;-146.72;57.58
40994;BME280;26722;43.212;27.932;2023-05-09T10:33:46;55052.75;;;-146.72;58.12
40994;BME280;26722;43.212;27.932;2023-05-09T10:36:12;55056.97;;;-146.72;58.24
40994;BME280;26722;43.212;27.932;2023-05-09T10:38:39;55056.97;;;-146.72;58.29
40994;BME280;26722;43.212;27.932;2023-05-09T10:41:05;55056.97;;;-146.72;58.88
40994;BME280;26722;43.212;27.932;2023-05-09T10:43:31;55052.75;;;-146.72;61.54
40994;BME280;26722;43.212;27.932;2023-05-09T10:45:57;55054.88;;;-146.72;63.36
40994;BME280;26722;43.212;27.932;2023-05-09T10:48:23;55054.88;;;-146.72;64.28
40994;BME280;26722;43.212;27.932;2023-05-09T10:50:49;55080.19;;;-146.72;64.86
40994;BME280;26722;43.212;27.932;2023-05-09T10:53:14;55078.09;;;-146.72;65.58
40994;BME280;26722;43.212;27.932;2023-05-09T10:55:54;55063.31;;;-146.72;65.44
40994;BME280;26722;43.212;27.932;2023-05-09T11:00:47;55059.09;;;-146.72;66.27
40994;BME280;26722;43.212;27.932;2023-05-09T11:03:13;55056.97;;;-146.72;65.84
40994;BME280;26722;43.212;27.932;2023-05-09T11:05:38;55059.09;;;-146.72;65.26
40994;BME280;26722;43.212;27.932;2023-05-09T11:10:48;55048.53;;;-146.72;65.29
40994;BME280;26722;43.212;27.932;2023-05-09T11:13:17;55037.97;;;-146.72;64.65
40994;BME280;26722;43.212;27.932;2023-05-09T11:18:29;55031.66;;;-146.72;63.64
40994;BME280;26722;43.212;27.932;2023-05-09T11:20:54;55054.88;;;-146.72;62.73
40994;BME280;26722;43.212;27.932;2023-05-09T11:23:29;55048.53;;;-146.72;62.84
40994;BME280;26722;43.212;27.932;2023-05-09T11:26:03;55061.19;;;-146.72;64.73
40994;BME280;26722;43.212;27.932;2023-05-09T11:28:29;55063.31;;;-146.72;65.94
40994;BME280;26722;43.212;27.932;2023-05-09T11:31:11;55056.97;;;-146.72;65.67
40994;BME280;26722;43.212;27.932;2023-05-09T11:33:37;55063.31;;;-146.72;66.21
40994;BME280;26722;43.212;27.932;2023-05-09T11:38:41;55075.97;;;-146.72;66.56
40994;BME280;26722;43.212;27.932;2023-05-09T11:41:06;55073.88;;;-146.72;67.49
40994;BME280;26722;43.212;27.932;2023-05-09T11:43:32;55090.75;;;-146.72;67.83
40994;BME280;26722;43.212;27.932;2023-05-09T11:45:59;55088.66;;;-146.72;67.40
40994;BME280;26722;43.212;27.932;2023-05-09T11:48:24;55061.19;;;-146.72;67.26
40994;BME280;26722;43.212;27.932;2023-05-09T11:50:49;55086.53;;;-146.72;67.40
40994;BME280;26722;43.212;27.932;2023-05-09T11:53:15;55065.41;;;-146.72;68.16
40994;BME280;26722;43.212;27.932;2023-05-09T11:55:40;55069.66;;;-146.72;68.10
40994;BME280;26722;43.212;27.932;2023-05-09T11:58:06;55063.31;;;-146.72;67.29
40994;BME280;26722;43.212;27.932;2023-05-09T12:00:31;55065.41;;;-146.72;67.62
40994;BME280;26722;43.212;27.932;2023-05-09T12:02:57;55069.66;;;-146.72;67.09
40994;BME280;26722;43.212;27.932;2023-05-09T12:05:22;55069.66;;;-146.72;67.58
40994;BME280;26722;43.212;27.932;2023-05-09T12:07:47;55078.09;;;-146.72;67.62
40994;BME280;26722;43.212;27.932;2023-05-09T12:10:14;55073.88;;;-146.72;68.95
40994;BME280;26722;43.212;27.932;2023-05-09T12:12:46;55075.97;;;-146.72;69.11
40994;BME280;26722;43.212;27.932;2023-05-09T12:15:12;55097.09;;;-146.72;68.83
40994;BME280;26722;43.212;27.932;2023-05-09T12:17:37;55063.31;;;-146.72;68.83
40994;BME280;26722;43.212;27.932;2023-05-09T12:20:03;55082.31;;;-146.72;68.62
40994;BME280;26722;43.212;27.932;2023-05-09T12:22:32;55086.53;;;-146.72;68.93
40994;BME280;26722;43.212;27.932;2023-05-09T12:24:58;55078.09;;;-146.72;68.38
40994;BME280;26722;43.212;27.932;2023-05-09T12:27:25;55084.44;;;-146.72;67.57
40994;BME280;26722;43.212;27.932;2023-05-09T12:29:52;55084.44;;;-146.72;67.75
40994;BME280;26722;43.212;27.932;2023-05-09T12:32:17;55086.53;;;-146.72;68.32
40994;BME280;26722;43.212;27.932;2023-05-09T12:34:42;55090.75;;;-146.72;69.28
40994;BME280;26722;43.212;27.932;2023-05-09T12:37:16;55086.53;;;-146.72;69.73
40994;BME280;26722;43.212;27.932;2023-05-09T12:40:04;55094.97;;;-146.72;69.82
40994;BME280;26722;43.212;27.932;2023-05-09T12:42:32;55082.31;;;-146.72;70.10
40994;BME280;26722;43.212;27.932;2023-05-09T12:44:58;55090.75;;;-146.72;70.65
40994;BME280;26722;43.212;27.932;2023-05-09T12:47:26;55080.19;;;-146.72;70.38
40994;BME280;26722;43.212;27.932;2023-05-09T12:49:55;55092.88;;;-146.72;70.32
40994;BME280;26722;43.212;27.932;2023-05-09T12:52:21;55088.66;;;-146.72;70.65
40994;BME280;26722;43.212;27.932;2023-05-09T12:54:46;55078.09;;;-146.72;69.90